createdAt,value
2022-10-22T00:04:22.565Z,1.40
2022-10-22T00:14:22.219Z,0.80
2022-10-22T00:24:22.469Z,1.10
2022-10-22T00:34:22.155Z,1.10
2022-10-22T00:44:23.604Z,1.50
2022-10-22T00:54:21.619Z,1.80
2022-10-22T01:04:21.563Z,1.50
2022-10-22T01:14:21.485Z,1.90
2022-10-22T01:24:22.315Z,1.50
2022-10-22T01:34:21.859Z,1.20
2022-10-22T01:44:21.555Z,1.80
2022-10-22T01:54:21.440Z,1.30
2022-10-22T02:04:21.135Z,1.80
2022-10-22T02:14:21.216Z,3.50
2022-10-22T02:24:21.035Z,2.20
2022-10-22T02:34:20.702Z,2.00
2022-10-22T02:44:20.893Z,3.00
2022-10-22T02:54:20.434Z,1.60
2022-10-22T03:04:20.360Z,1.70
2022-10-22T03:14:20.275Z,1.30
2022-10-22T03:24:20.141Z,1.90
2022-10-22T03:34:20.407Z,1.50
2022-10-22T03:44:20.207Z,1.90
2022-10-22T03:54:20.065Z,1.50
2022-10-22T04:04:19.842Z,2.20
2022-10-22T04:14:19.696Z,1.20
2022-10-22T04:24:19.579Z,2.10
2022-10-22T04:34:19.419Z,2.80
2022-10-22T04:44:19.760Z,2.60
2022-10-22T04:54:19.585Z,2.40
2022-10-22T05:04:19.406Z,1.90
2022-10-22T05:14:19.289Z,2.00
2022-10-22T05:24:20.621Z,2.50
2022-10-22T05:34:18.915Z,1.10
2022-10-22T05:44:18.736Z,1.10
2022-10-22T05:54:18.659Z,2.30
2022-10-22T06:04:18.662Z,0.90
2022-10-22T06:14:18.663Z,1.20
2022-10-22T06:24:18.658Z,2.30
2022-10-22T06:34:18.298Z,1.60
2022-10-22T06:44:18.329Z,1.90
2022-10-22T06:54:19.770Z,2.40
2022-10-22T07:04:19.594Z,1.60
2022-10-22T07:14:18.584Z,1.30
2022-10-22T07:24:17.657Z,0.80
2022-10-22T07:34:17.855Z,1.80
2022-10-22T07:44:17.439Z,1.60
2022-10-22T07:54:16.792Z,1.40
2022-10-22T08:04:17.283Z,2.80
2022-10-22T08:14:18.970Z,1.90
2022-10-22T08:24:17.063Z,1.10
2022-10-22T08:34:18.500Z,1.50
2022-10-22T08:44:17.099Z,1.10
2022-10-22T08:54:17.171Z,1.70
2022-10-22T09:04:16.627Z,1.40
2022-10-22T09:14:16.881Z,1.80
2022-10-22T09:24:16.613Z,1.70
2022-10-22T09:34:16.666Z,1.30
2022-10-22T09:44:16.197Z,1.70
2022-10-22T09:54:16.370Z,2.80
2022-10-22T10:04:16.379Z,1.70
2022-10-22T10:14:16.334Z,2.00
2022-10-22T10:24:17.247Z,1.10
2022-10-22T10:34:16.110Z,2.50
2022-10-22T10:44:15.784Z,1.00
2022-10-22T10:54:15.577Z,1.20
2022-10-22T11:04:15.681Z,0.90
2022-10-22T11:14:32.748Z,2.30
2022-10-22T11:24:16.382Z,1.20
2022-10-22T11:34:47.983Z,1.10
2022-10-22T11:44:15.391Z,1.00
2022-10-22T11:54:15.288Z,1.40
2022-10-22T12:04:15.850Z,1.40
2022-10-22T12:14:16.047Z,1.30
2022-10-22T12:24:14.965Z,1.10
2022-10-22T12:34:14.891Z,1.30
2022-10-22T12:44:14.914Z,1.80
2022-10-22T12:54:14.223Z,1.20
2022-10-22T13:04:14.626Z,1.20
2022-10-22T13:14:14.240Z,1.20
2022-10-22T13:24:14.273Z,1.50
2022-10-22T13:34:15.173Z,0.70
2022-10-22T13:44:13.777Z,2.00
2022-10-22T13:54:13.697Z,1.00
2022-10-22T14:04:13.712Z,1.00
2022-10-22T14:14:13.783Z,1.20
2022-10-22T14:24:13.662Z,2.20
2022-10-22T14:34:13.636Z,1.70
2022-10-22T14:44:13.240Z,1.40
2022-10-22T14:54:13.501Z,1.40
2022-10-22T15:02:09.534Z,1.70
2022-10-22T15:11:29.152Z,2.10
2022-10-22T15:21:29.203Z,2.10
2022-10-22T15:31:29.125Z,0.90
2022-10-22T15:41:29.094Z,1.20
2022-10-22T15:51:29.073Z,2.00
2022-10-22T16:01:28.582Z,1.40
2022-10-22T16:11:28.442Z,1.10
2022-10-22T16:21:28.356Z,1.60
2022-10-22T16:31:28.323Z,2.20
2022-10-22T16:41:28.290Z,1.40
2022-10-22T16:51:28.205Z,1.90
2022-10-22T17:01:28.188Z,1.00
2022-10-22T17:11:28.099Z,1.20
2022-10-22T17:21:28.056Z,2.50
2022-10-22T17:31:27.984Z,1.40
2022-10-22T17:41:27.958Z,2.30
2022-10-22T17:51:27.906Z,1.30
2022-10-22T18:01:27.469Z,1.20
2022-10-22T18:11:27.379Z,1.30
2022-10-22T18:21:27.381Z,1.50
2022-10-22T18:31:27.351Z,2.60
2022-10-22T18:41:27.409Z,2.50
2022-10-22T18:51:26.837Z,1.80
2022-10-22T19:01:27.827Z,1.70
2022-10-22T19:11:27.551Z,4.30
2022-10-22T19:21:28.310Z,2.60
2022-10-22T19:31:28.348Z,3.90
2022-10-22T19:41:27.066Z,2.70
2022-10-22T19:51:27.094Z,3.60
2022-10-22T20:01:27.470Z,3.30
2022-10-22T20:11:26.737Z,3.50
2022-10-22T20:21:26.581Z,4.70
2022-10-22T20:31:27.670Z,3.90
2022-10-22T20:41:27.608Z,4.40
2022-10-22T20:51:26.957Z,5.20
2022-10-22T21:01:25.654Z,4.20
2022-10-22T21:11:26.521Z,4.70
2022-10-22T21:21:26.974Z,5.20
2022-10-22T21:31:25.214Z,8.50
2022-10-22T21:41:25.254Z,6.70
2022-10-22T21:51:25.293Z,6.90
2022-10-22T22:01:25.335Z,6.10
2022-10-22T22:11:25.248Z,4.40
2022-10-22T22:21:26.229Z,3.20
2022-10-22T22:31:24.855Z,3.50
2022-10-22T22:41:25.165Z,3.30
2022-10-22T22:51:26.313Z,4.00
2022-10-22T23:01:25.508Z,3.30
2022-10-22T23:11:24.570Z,3.40
2022-10-22T23:21:25.166Z,5.80
2022-10-22T23:31:25.488Z,4.80
2022-10-22T23:41:25.550Z,4.50
2022-10-22T23:51:25.632Z,2.80
